sensor_id;sensor_type;location;lat;lon;timestamp;temperature;humidity
22682;DHT22;11508;50.856;4.380;2023-05-29T00:00:29;16.10;99.90
22682;DHT22;11508;50.856;4.380;2023-05-29T00:02:54;16.00;27.10
22682;DHT22;11508;50.856;4.380;2023-05-29T00:05:20;16.00;99.90
22682;DHT22;11508;50.856;4.380;2023-05-29T00:07:46;16.00;99.90
22682;DHT22;11508;50.856;4.380;2023-05-29T00:10:14;15.90;99.90
22682;DHT22;11508;50.856;4.380;2023-05-29T00:12:40;15.80;1.00
22682;DHT22;11508;50.856;4.380;2023-05-29T00:15:06;15.80;1.00
22682;DHT22;11508;50.856;4.380;2023-05-29T00:17:33;15.70;1.00
22682;DHT22;11508;50.856;4.380;2023-05-29T00:19:59;15.70;1.00
22682;DHT22;11508;50.856;4.380;2023-05-29T00:22:27;15.70;3.10
22682;DHT22;11508;50.856;4.380;2023-05-29T00:24:52;15.70;1.00
22682;DHT22;11508;50.856;4.380;2023-05-29T00:27:18;15.70;55.50
22682;DHT22;11508;50.856;4.380;2023-05-29T00:29:45;15.60;99.90
22682;DHT22;11508;50.856;4.380;2023-05-29T00:32:12;15.40;99.90
22682;DHT22;11508;50.856;4.380;2023-05-29T00:34:37;15.40;99.90
22682;DHT22;11508;50.856;4.380;2023-05-29T00:37:03;15.40;99.90
22682;DHT22;11508;50.856;4.380;2023-05-29T00:39:29;15.50;99.90
22682;DHT22;11508;50.856;4.380;2023-05-29T00:41:55;15.50;99.90
22682;DHT22;11508;50.856;4.380;2023-05-29T00:44:21;15.40;99.90
22682;DHT22;11508;50.856;4.380;2023-05-29T00:46:49;15.30;99.90
22682;DHT22;11508;50.856;4.380;2023-05-29T00:49:16;15.20;1.00
22682;DHT22;11508;50.856;4.380;2023-05-29T00:51:43;15.10;1.00
22682;DHT22;11508;50.856;4.380;2023-05-29T00:54:14;15.20;1.00
22682;DHT22;11508;50.856;4.380;2023-05-29T00:56:42;15.10;1.00
22682;DHT22;11508;50.856;4.380;2023-05-29T00:59:10;15.10;55.50
22682;DHT22;11508;50.856;4.380;2023-05-29T01:01:36;15.00;29.20
22682;DHT22;11508;50.856;4.380;2023-05-29T01:04:04;15.00;50.40
22682;DHT22;11508;50.856;4.380;2023-05-29T01:06:35;15.00;73.30
22682;DHT22;11508;50.856;4.380;2023-05-29T01:09:01;14.90;99.90
22682;DHT22;11508;50.856;4.380;2023-05-29T01:11:58;14.70;99.90
22682;DHT22;11508;50.856;4.380;2023-05-29T01:26:10;14.40;99.90
22682;DHT22;11508;50.856;4.380;2023-05-29T01:28:57;14.50;99.90
22682;DHT22;11508;50.856;4.380;2023-05-29T01:31:26;14.30;99.90
22682;DHT22;11508;50.856;4.380;2023-05-29T01:33:54;14.30;99.90
22682;DHT22;11508;50.856;4.380;2023-05-29T01:36:21;14.20;1.00
22682;DHT22;11508;50.856;4.380;2023-05-29T01:38:48;14.10;1.00
22682;DHT22;11508;50.856;4.380;2023-05-29T01:41:15;14.20;1.00
22682;DHT22;11508;50.856;4.380;2023-05-29T01:43:42;14.30;1.00
22682;DHT22;11508;50.856;4.380;2023-05-29T01:46:08;14.10;1.00
22682;DHT22;11508;50.856;4.380;2023-05-29T01:48:34;14.20;1.00
22682;DHT22;11508;50.856;4.380;2023-05-29T01:51:00;14.20;1.00
22682;DHT22;11508;50.856;4.380;2023-05-29T01:53:26;14.10;1.00
22682;DHT22;11508;50.856;4.380;2023-05-29T01:55:51;14.10;1.00
22682;DHT22;11508;50.856;4.380;2023-05-29T01:58:18;14.10;1.00
22682;DHT22;11508;50.856;4.380;2023-05-29T02:00:45;14.00;1.00
22682;DHT22;11508;50.856;4.380;2023-05-29T02:03:11;13.90;1.00
22682;DHT22;11508;50.856;4.380;2023-05-29T02:05:37;13.90;1.00
22682;DHT22;11508;50.856;4.380;2023-05-29T02:08:02;14.00;1.00
22682;DHT22;11508;50.856;4.380;2023-05-29T02:10:28;14.10;1.00
22682;DHT22;11508;50.856;4.380;2023-05-29T02:12:55;14.00;1.00
22682;DHT22;11508;50.856;4.380;2023-05-29T02:15:23;14.00;99.90
22682;DHT22;11508;50.856;4.380;2023-05-29T02:17:48;14.00;99.90
22682;DHT22;11508;50.856;4.380;2023-05-29T02:20:15;14.00;99.90
22682;DHT22;11508;50.856;4.380;2023-05-29T02:22:41;14.00;99.90
22682;DHT22;11508;50.856;4.380;2023-05-29T02:25:07;13.90;99.90
22682;DHT22;11508;50.856;4.380;2023-05-29T02:27:33;13.90;99.90
22682;DHT22;11508;50.856;4.380;2023-05-29T02:29:59;13.90;99.90
22682;DHT22;11508;50.856;4.380;2023-05-29T02:32:24;14.00;99.90
22682;DHT22;11508;50.856;4.380;2023-05-29T02:34:53;14.10;99.90
22682;DHT22;11508;50.856;4.380;2023-05-29T02:37:19;13.90;99.90
22682;DHT22;11508;50.856;4.380;2023-05-29T02:39:44;13.80;99.90
22682;DHT22;11508;50.856;4.380;2023-05-29T02:42:10;13.60;99.90
22682;DHT22;11508;50.856;4.380;2023-05-29T02:44:36;13.70;99.90
22682;DHT22;11508;50.856;4.380;2023-05-29T02:47:01;13.80;99.90
22682;DHT22;11508;50.856;4.380;2023-05-29T02:49:27;13.80;99.90
22682;DHT22;11508;50.856;4.380;2023-05-29T02:51:53;13.60;99.90
22682;DHT22;11508;50.856;4.380;2023-05-29T02:54:23;13.60;99.90
22682;DHT22;11508;50.856;4.380;2023-05-29T02:56:51;13.60;99.90
22682;DHT22;11508;50.856;4.380;2023-05-29T02:59:17;13.60;99.90
22682;DHT22;11508;50.856;4.380;2023-05-29T03:01:42;13.50;99.90
22682;DHT22;11508;50.856;4.380;2023-05-29T03:04:09;13.40;99.90
22682;DHT22;11508;50.856;4.380;2023-05-29T03:06:35;13.40;99.90
22682;DHT22;11508;50.856;4.380;2023-05-29T03:09:03;13.40;99.90
22682;DHT22;11508;50.856;4.380;2023-05-29T03:11:31;13.30;99.90
22682;DHT22;11508;50.856;4.380;2023-05-29T03:13:56;13.30;99.90
22682;DHT22;11508;50.856;4.380;2023-05-29T03:16:22;13.30;99.90
22682;DHT22;11508;50.856;4.380;2023-05-29T03:18:48;13.20;99.90
22682;DHT22;11508;50.856;4.380;2023-05-29T03:21:13;13.20;99.90
22682;DHT22;11508;50.856;4.380;2023-05-29T03:23:39;13.20;99.90
22682;DHT22;11508;50.856;4.380;2023-05-29T03:26:05;13.20;99.90
22682;DHT22;11508;50.856;4.380;2023-05-29T03:28:31;13.00;99.90
22682;DHT22;11508;50.856;4.380;2023-05-29T03:30:57;13.00;99.90
22682;DHT22;11508;50.856;4.380;2023-05-29T03:33:22;13.00;99.90
22682;DHT22;11508;50.856;4.380;2023-05-29T03:35:49;13.10;43.20
22682;DHT22;11508;50.856;4.380;2023-05-29T03:38:14;13.20;1.00
22682;DHT22;11508;50.856;4.380;2023-05-29T03:40:40;13.00;1.00
22682;DHT22;11508;50.856;4.380;2023-05-29T03:43:06;13.00;99.90
22682;DHT22;11508;50.856;4.380;2023-05-29T03:45:31;12.90;99.90
22682;DHT22;11508;50.856;4.380;2023-05-29T03:47:57;13.00;99.90
22682;DHT22;11508;50.856;4.380;2023-05-29T03:50:23;13.00;99.90
22682;DHT22;11508;50.856;4.380;2023-05-29T03:52:49;12.90;99.90
22682;DHT22;11508;50.856;4.380;2023-05-29T03:55:14;13.00;99.90
22682;DHT22;11508;50.856;4.380;2023-05-29T03:57:40;13.00;1.00
22682;DHT22;11508;50.856;4.380;2023-05-29T04:00:10;13.00;1.00
22682;DHT22;11508;50.856;4.380;2023-05-29T04:02:39;13.00;99.90
22682;DHT22;11508;50.856;4.380;2023-05-29T04:05:06;12.80;99.90
22682;DHT22;11508;50.856;4.380;2023-05-29T04:07:33;12.90;99.90
22682;DHT22;11508;50.856;4.380;2023-05-29T04:09:59;12.80;99.90
22682;DHT22;11508;50.856;4.380;2023-05-29T04:12:24;12.90;92.60
22682;DHT22;11508;50.856;4.380;2023-05-29T04:14:50;12.90;1.00
22682;DHT22;11508;50.856;4.380;2023-05-29T04:17:16;12.90;1.00
22682;DHT22;11508;50.856;4.380;2023-05-29T04:19:41;12.90;99.90
22682;DHT22;11508;50.856;4.380;2023-05-29T04:22:07;13.00;99.90
22682;DHT22;11508;50.856;4.380;2023-05-29T04:24:33;12.90;99.90
22682;DHT22;11508;50.856;4.380;2023-05-29T04:26:59;13.00;99.90
22682;DHT22;11508;50.856;4.380;2023-05-29T04:29:28;12.90;58.80
22682;DHT22;11508;50.856;4.380;2023-05-29T04:31:54;12.90;1.00
22682;DHT22;11508;50.856;4.380;2023-05-29T04:34:21;12.80;1.00
22682;DHT22;11508;50.856;4.380;2023-05-29T04:36:47;12.90;1.00
22682;DHT22;11508;50.856;4.380;2023-05-29T04:39:13;12.80;97.80
22682;DHT22;11508;50.856;4.380;2023-05-29T04:41:42;13.00;1.00
22682;DHT22;11508;50.856;4.380;2023-05-29T04:44:08;13.00;1.00
22682;DHT22;11508;50.856;4.380;2023-05-29T04:46:36;12.90;1.00
22682;DHT22;11508;50.856;4.380;2023-05-29T04:49:03;12.80;99.90
22682;DHT22;11508;50.856;4.380;2023-05-29T04:51:30;12.80;1.00
22682;DHT22;11508;50.856;4.380;2023-05-29T04:53:56;13.00;1.00
22682;DHT22;11508;50.856;4.380;2023-05-29T04:56:22;13.00;99.90
22682;DHT22;11508;50.856;4.380;2023-05-29T04:58:48;13.00;99.90
22682;DHT22;11508;50.856;4.380;2023-05-29T05:01:14;13.20;46.20
22682;DHT22;11508;50.856;4.380;2023-05-29T05:03:43;13.20;1.00
22682;DHT22;11508;50.856;4.380;2023-05-29T05:06:09;13.20;99.90
22682;DHT22;11508;50.856;4.380;2023-05-29T05:08:35;13.30;99.90
22682;DHT22;11508;50.856;4.380;2023-05-29T05:11:01;13.40;99.90
22682;DHT22;11508;50.856;4.380;2023-05-29T05:13:27;13.60;1.00
22682;DHT22;11508;50.856;4.380;2023-05-29T05:15:53;13.50;99.90
22682;DHT22;11508;50.856;4.380;2023-05-29T05:18:19;13.40;99.90
22682;DHT22;11508;50.856;4.380;2023-05-29T05:20:45;13.60;99.90
22682;DHT22;11508;50.856;4.380;2023-05-29T05:23:11;13.70;99.90
22682;DHT22;11508;50.856;4.380;2023-05-29T05:25:37;13.60;1.00
22682;DHT22;11508;50.856;4.380;2023-05-29T05:28:04;13.60;1.00
22682;DHT22;11508;50.856;4.380;2023-05-29T05:30:30;13.60;1.00
22682;DHT22;11508;50.856;4.380;2023-05-29T05:32:56;13.40;70.10
22682;DHT22;11508;50.856;4.380;2023-05-29T05:35:22;13.50;99.90
22682;DHT22;11508;50.856;4.380;2023-05-29T05:37:47;13.60;61.30
22682;DHT22;11508;50.856;4.380;2023-05-29T05:40:13;13.90;1.00
22682;DHT22;11508;50.856;4.380;2023-05-29T05:42:39;15.10;1.00
22682;DHT22;11508;50.856;4.380;2023-05-29T05:45:05;16.20;99.90
22682;DHT22;11508;50.856;4.380;2023-05-29T05:47:32;16.90;99.90
22682;DHT22;11508;50.856;4.380;2023-05-29T05:49:58;17.40;99.90
22682;DHT22;11508;50.856;4.380;2023-05-29T05:52:24;18.20;1.00
22682;DHT22;11508;50.856;4.380;2023-05-29T05:54:51;18.80;99.90
22682;DHT22;11508;50.856;4.380;2023-05-29T05:57:17;18.90;99.90
22682;DHT22;11508;50.856;4.380;2023-05-29T05:59:43;19.20;99.90
22682;DHT22;11508;50.856;4.380;2023-05-29T06:02:09;20.20;99.90
22682;DHT22;11508;50.856;4.380;2023-05-29T06:04:34;20.00;1.00
22682;DHT22;11508;50.856;4.380;2023-05-29T06:07:00;19.80;1.00
22682;DHT22;11508;50.856;4.380;2023-05-29T06:09:26;20.50;1.00
22682;DHT22;11508;50.856;4.380;2023-05-29T06:11:53;21.20;1.00
22682;DHT22;11508;50.856;4.380;2023-05-29T06:14:18;21.90;1.00
22682;DHT22;11508;50.856;4.380;2023-05-29T06:16:44;21.30;99.90
22682;DHT22;11508;50.856;4.380;2023-05-29T06:19:10;20.70;99.90
22682;DHT22;11508;50.856;4.380;2023-05-29T06:21:36;20.50;99.90
22682;DHT22;11508;50.856;4.380;2023-05-29T06:24:03;20.40;99.90
22682;DHT22;11508;50.856;4.380;2023-05-29T06:26:28;19.60;99.90
22682;DHT22;11508;50.856;4.380;2023-05-29T06:28:54;20.50;99.90
22682;DHT22;11508;50.856;4.380;2023-05-29T06:31:20;21.00;99.90
22682;DHT22;11508;50.856;4.380;2023-05-29T06:33:46;20.40;99.90
22682;DHT22;11508;50.856;4.380;2023-05-29T06:36:11;20.80;99.90
22682;DHT22;11508;50.856;4.380;2023-05-29T06:38:37;20.80;99.90
22682;DHT22;11508;50.856;4.380;2023-05-29T06:41:03;21.10;99.90
22682;DHT22;11508;50.856;4.380;2023-05-29T06:43:29;21.90;99.90
22682;DHT22;11508;50.856;4.380;2023-05-29T06:45:55;20.80;99.90
22682;DHT22;11508;50.856;4.380;2023-05-29T06:48:21;21.00;99.90
22682;DHT22;11508;50.856;4.380;2023-05-29T06:50:48;21.40;99.90
22682;DHT22;11508;50.856;4.380;2023-05-29T06:53:14;21.60;99.90
22682;DHT22;11508;50.856;4.380;2023-05-29T06:55:39;21.30;99.90
22682;DHT22;11508;50.856;4.380;2023-05-29T06:58:08;21.60;99.90
22682;DHT22;11508;50.856;4.380;2023-05-29T07:00:34;21.50;99.90
22682;DHT22;11508;50.856;4.380;2023-05-29T07:03:00;21.70;99.90
22682;DHT22;11508;50.856;4.380;2023-05-29T07:05:27;21.70;99.90
22682;DHT22;11508;50.856;4.380;2023-05-29T07:07:52;21.80;99.90
22682;DHT22;11508;50.856;4.380;2023-05-29T07:10:18;21.90;99.90
22682;DHT22;11508;50.856;4.380;2023-05-29T07:12:44;22.20;99.90
22682;DHT22;11508;50.856;4.380;2023-05-29T07:15:10;21.80;99.90
22682;DHT22;11508;50.856;4.380;2023-05-29T07:17:35;22.10;99.90
22682;DHT22;11508;50.856;4.380;2023-05-29T07:20:01;22.50;99.90
22682;DHT22;11508;50.856;4.380;2023-05-29T07:22:27;22.50;99.90
22682;DHT22;11508;50.856;4.380;2023-05-29T07:24:52;22.40;99.90
22682;DHT22;11508;50.856;4.380;2023-05-29T07:27:18;22.30;99.90
22682;DHT22;11508;50.856;4.380;2023-05-29T07:29:44;22.10;99.90
22682;DHT22;11508;50.856;4.380;2023-05-29T07:32:09;22.00;99.90
22682;DHT22;11508;50.856;4.380;2023-05-29T07:34:36;22.20;99.90
22682;DHT22;11508;50.856;4.380;2023-05-29T07:37:04;22.80;99.90
22682;DHT22;11508;50.856;4.380;2023-05-29T07:39:31;22.90;99.90
22682;DHT22;11508;50.856;4.380;2023-05-29T07:41:56;23.30;99.90
22682;DHT22;11508;50.856;4.380;2023-05-29T07:44:22;23.00;99.90
22682;DHT22;11508;50.856;4.380;2023-05-29T07:46:48;22.30;99.90
22682;DHT22;11508;50.856;4.380;2023-05-29T07:49:14;22.20;99.90
22682;DHT22;11508;50.856;4.380;2023-05-29T07:51:41;22.30;99.90
22682;DHT22;11508;50.856;4.380;2023-05-29T07:54:06;22.70;99.90
22682;DHT22;11508;50.856;4.380;2023-05-29T07:56:32;23.00;99.90
22682;DHT22;11508;50.856;4.380;2023-05-29T07:59:00;22.80;99.90
22682;DHT22;11508;50.856;4.380;2023-05-29T08:01:26;22.70;99.90
22682;DHT22;11508;50.856;4.380;2023-05-29T08:03:52;23.10;99.90
22682;DHT22;11508;50.856;4.380;2023-05-29T08:06:18;23.60;99.90
22682;DHT22;11508;50.856;4.380;2023-05-29T08:08:44;24.60;99.90
22682;DHT22;11508;50.856;4.380;2023-05-29T08:11:10;26.10;99.90
22682;DHT22;11508;50.856;4.380;2023-05-29T08:13:36;25.30;99.90
22682;DHT22;11508;50.856;4.380;2023-05-29T08:16:02;24.10;99.90
22682;DHT22;11508;50.856;4.380;2023-05-29T08:18:31;23.70;99.90
22682;DHT22;11508;50.856;4.380;2023-05-29T08:20:58;23.90;99.90
22682;DHT22;11508;50.856;4.380;2023-05-29T08:23:24;23.80;99.90
22682;DHT22;11508;50.856;4.380;2023-05-29T08:25:50;24.00;99.90
22682;DHT22;11508;50.856;4.380;2023-05-29T08:28:16;24.10;99.90
22682;DHT22;11508;50.856;4.380;2023-05-29T08:30:42;24.80;99.90
22682;DHT22;11508;50.856;4.380;2023-05-29T08:33:08;25.80;99.90
22682;DHT22;11508;50.856;4.380;2023-05-29T08:35:33;24.70;99.90
22682;DHT22;11508;50.856;4.380;2023-05-29T08:38:00;24.50;99.90
22682;DHT22;11508;50.856;4.380;2023-05-29T08:40:25;24.10;99.90
22682;DHT22;11508;50.856;4.380;2023-05-29T08:43:13;24.80;99.90
22682;DHT22;11508;50.856;4.380;2023-05-29T08:45:43;24.50;99.90
22682;DHT22;11508;50.856;4.380;2023-05-29T08:48:11;24.60;99.90
22682;DHT22;11508;50.856;4.380;2023-05-29T08:50:43;24.40;99.90
22682;DHT22;11508;50.856;4.380;2023-05-29T08:53:10;24.40;99.90
22682;DHT22;11508;50.856;4.380;2023-05-29T08:55:36;24.90;99.90
22682;DHT22;11508;50.856;4.380;2023-05-29T08:58:02;25.40;99.90
22682;DHT22;11508;50.856;4.380;2023-05-29T09:00:28;25.50;99.90
22682;DHT22;11508;50.856;4.380;2023-05-29T09:02:54;25.70;99.90
22682;DHT22;11508;50.856;4.380;2023-05-29T09:05:25;25.10;99.90
22682;DHT22;11508;50.856;4.380;2023-05-29T09:07:53;24.80;99.90
22682;DHT22;11508;50.856;4.380;2023-05-29T09:10:19;25.10;99.90
22682;DHT22;11508;50.856;4.380;2023-05-29T09:12:50;24.80;99.90
22682;DHT22;11508;50.856;4.380;2023-05-29T09:15:20;24.10;99.90
22682;DHT22;11508;50.856;4.380;2023-05-29T09:17:56;23.90;99.90
22682;DHT22;11508;50.856;4.380;2023-05-29T09:20:23;23.60;99.90
22682;DHT22;11508;50.856;4.380;2023-05-29T09:25:26;24.00;99.90
22682;DHT22;11508;50.856;4.380;2023-05-29T09:27:57;24.10;99.90
22682;DHT22;11508;50.856;4.380;2023-05-29T09:30:43;23.90;99.90
22682;DHT22;11508;50.856;4.380;2023-05-29T09:33:11;23.60;99.90
22682;DHT22;11508;50.856;4.380;2023-05-29T09:35:47;24.40;99.90
22682;DHT22;11508;50.856;4.380;2023-05-29T09:38:15;24.60;99.90
22682;DHT22;11508;50.856;4.380;2023-05-29T09:40:41;24.10;99.90
22682;DHT22;11508;50.856;4.380;2023-05-29T09:43:12;24.70;99.90
22682;DHT22;11508;50.856;4.380;2023-05-29T09:45:39;24.60;99.90
22682;DHT22;11508;50.856;4.380;2023-05-29T09:48:12;24.70;99.90
22682;DHT22;11508;50.856;4.380;2023-05-29T09:50:39;24.50;99.90
22682;DHT22;11508;50.856;4.380;2023-05-29T09:53:19;24.60;99.90
22682;DHT22;11508;50.856;4.380;2023-05-29T09:55:46;24.50;99.90
22682;DHT22;11508;50.856;4.380;2023-05-29T09:58:14;24.90;99.90
22682;DHT22;11508;50.856;4.380;2023-05-29T10:00:41;24.80;99.90
22682;DHT22;11508;50.856;4.380;2023-05-29T10:03:07;25.00;99.90
22682;DHT22;11508;50.856;4.380;2023-05-29T10:05:33;24.60;99.90
22682;DHT22;11508;50.856;4.380;2023-05-29T10:07:59;24.70;99.90
22682;DHT22;11508;50.856;4.380;2023-05-29T10:10:27;24.70;99.90
22682;DHT22;11508;50.856;4.380;2023-05-29T10:12:56;24.30;99.90
22682;DHT22;11508;50.856;4.380;2023-05-29T10:15:24;24.40;99.90
22682;DHT22;11508;50.856;4.380;2023-05-29T10:18:11;24.60;99.90
22682;DHT22;11508;50.856;4.380;2023-05-29T10:20:39;24.80;99.90
22682;DHT22;11508;50.856;4.380;2023-05-29T10:23:07;25.10;99.90
22682;DHT22;11508;50.856;4.380;2023-05-29T10:25:36;24.90;99.90
22682;DHT22;11508;50.856;4.380;2023-05-29T10:28:02;25.00;99.90
22682;DHT22;11508;50.856;4.380;2023-05-29T10:30:51;24.40;99.90
22682;DHT22;11508;50.856;4.380;2023-05-29T10:36:13;24.40;99.90
22682;DHT22;11508;50.856;4.380;2023-05-29T10:38:41;24.20;99.90
22682;DHT22;11508;50.856;4.380;2023-05-29T10:44:02;24.40;99.90
22682;DHT22;11508;50.856;4.380;2023-05-29T10:47:06;24.30;99.90
22682;DHT22;11508;50.856;4.380;2023-05-29T10:49:34;24.80;99.90
22682;DHT22;11508;50.856;4.380;2023-05-29T10:52:00;25.20;99.90
22682;DHT22;11508;50.856;4.380;2023-05-29T10:54:26;24.80;99.90
22682;DHT22;11508;50.856;4.380;2023-05-29T10:56:57;24.60;99.90
22682;DHT22;11508;50.856;4.380;2023-05-29T10:59:23;25.00;99.90
22682;DHT22;11508;50.856;4.380;2023-05-29T11:01:56;25.10;99.90
22682;DHT22;11508;50.856;4.380;2023-05-29T11:06:52;25.50;99.90
22682;DHT22;11508;50.856;4.380;2023-05-29T11:09:37;25.30;99.90
22682;DHT22;11508;50.856;4.380;2023-05-29T11:12:22;25.50;99.90
22682;DHT22;11508;50.856;4.380;2023-05-29T11:15:06;25.40;99.90
22682;DHT22;11508;50.856;4.380;2023-05-29T11:25:24;25.60;99.90
22682;DHT22;11508;50.856;4.380;2023-05-29T11:27:50;25.10;99.90
22682;DHT22;11508;50.856;4.380;2023-05-29T11:30:19;25.40;99.90
22682;DHT22;11508;50.856;4.380;2023-05-29T11:32:46;25.70;99.90
22682;DHT22;11508;50.856;4.380;2023-05-29T11:35:13;25.30;99.90
22682;DHT22;11508;50.856;4.380;2023-05-29T11:37:40;25.00;99.90
22682;DHT22;11508;50.856;4.380;2023-05-29T11:40:09;25.40;99.90
22682;DHT22;11508;50.856;4.380;2023-05-29T11:42:35;25.50;99.90
22682;DHT22;11508;50.856;4.380;2023-05-29T11:45:15;25.70;99.90
22682;DHT22;11508;50.856;4.380;2023-05-29T11:48:01;25.30;99.90
22682;DHT22;11508;50.856;4.380;2023-05-29T11:50:28;25.10;99.90
22682;DHT22;11508;50.856;4.380;2023-05-29T11:52:56;25.00;99.90
22682;DHT22;11508;50.856;4.380;2023-05-29T11:55:23;25.20;99.90
22682;DHT22;11508;50.856;4.380;2023-05-29T11:57:50;24.60;99.90
22682;DHT22;11508;50.856;4.380;2023-05-29T12:00:18;24.60;99.90
22682;DHT22;11508;50.856;4.380;2023-05-29T12:02:45;24.40;99.90
22682;DHT22;11508;50.856;4.380;2023-05-29T12:05:16;24.10;99.90
22682;DHT22;11508;50.856;4.380;2023-05-29T12:07:48;23.90;99.90
22682;DHT22;11508;50.856;4.380;2023-05-29T12:10:16;24.20;99.90
22682;DHT22;11508;50.856;4.380;2023-05-29T12:12:46;24.60;99.90
22682;DHT22;11508;50.856;4.380;2023-05-29T12:15:12;24.90;99.90
22682;DHT22;11508;50.856;4.380;2023-05-29T12:17:40;24.90;99.90
22682;DHT22;11508;50.856;4.380;2023-05-29T12:20:07;25.00;99.90
22682;DHT22;11508;50.856;4.380;2023-05-29T12:22:36;24.90;99.90
22682;DHT22;11508;50.856;4.380;2023-05-29T12:25:14;24.60;99.90
22682;DHT22;11508;50.856;4.380;2023-05-29T12:27:42;24.40;99.90
22682;DHT22;11508;50.856;4.380;2023-05-29T12:32:42;24.80;99.90
22682;DHT22;11508;50.856;4.380;2023-05-29T12:35:14;24.80;99.90
22682;DHT22;11508;50.856;4.380;2023-05-29T12:37:53;24.50;99.90
22682;DHT22;11508;50.856;4.380;2023-05-29T12:40:25;24.40;99.90
22682;DHT22;11508;50.856;4.380;2023-05-29T12:42:59;24.50;99.90
22682;DHT22;11508;50.856;4.380;2023-05-29T12:45:26;24.20;99.90
22682;DHT22;11508;50.856;4.380;2023-05-29T12:47:54;24.50;99.90
22682;DHT22;11508;50.856;4.380;2023-05-29T12:50:27;24.50;99.90
22682;DHT22;11508;50.856;4.380;2023-05-29T12:55:19;24.30;99.90
22682;DHT22;11508;50.856;4.380;2023-05-29T12:57:45;24.50;99.90
22682;DHT22;11508;50.856;4.380;2023-05-29T13:00:12;24.80;99.90
22682;DHT22;11508;50.856;4.380;2023-05-29T13:02:38;24.80;99.90
22682;DHT22;11508;50.856;4.380;2023-05-29T13:05:04;24.60;99.90
22682;DHT22;11508;50.856;4.380;2023-05-29T13:07:31;24.40;99.90
22682;DHT22;11508;50.856;4.380;2023-05-29T13:09:57;24.40;99.90
22682;DHT22;11508;50.856;4.380;2023-05-29T13:12:23;24.40;99.90
22682;DHT22;11508;50.856;4.380;2023-05-29T13:14:48;24.10;99.90
22682;DHT22;11508;50.856;4.380;2023-05-29T13:17:14;24.20;99.90
22682;DHT22;11508;50.856;4.380;2023-05-29T13:19:40;23.90;99.90
22682;DHT22;11508;50.856;4.380;2023-05-29T13:22:05;23.60;99.90
22682;DHT22;11508;50.856;4.380;2023-05-29T13:24:31;23.60;99.90
22682;DHT22;11508;50.856;4.380;2023-05-29T13:26:57;23.40;99.90
22682;DHT22;11508;50.856;4.380;2023-05-29T13:29:22;23.00;99.90
22682;DHT22;11508;50.856;4.380;2023-05-29T13:31:48;23.10;99.90
22682;DHT22;11508;50.856;4.380;2023-05-29T13:34:14;23.10;99.90
22682;DHT22;11508;50.856;4.380;2023-05-29T13:36:39;23.20;99.90
22682;DHT22;11508;50.856;4.380;2023-05-29T13:39:05;22.90;99.90
22682;DHT22;11508;50.856;4.380;2023-05-29T13:41:31;22.50;99.90
22682;DHT22;11508;50.856;4.380;2023-05-29T13:43:57;22.50;99.90
22682;DHT22;11508;50.856;4.380;2023-05-29T13:46:23;22.50;99.90
22682;DHT22;11508;50.856;4.380;2023-05-29T13:48:49;22.50;99.90
22682;DHT22;11508;50.856;4.380;2023-05-29T13:51:14;22.40;99.90
22682;DHT22;11508;50.856;4.380;2023-05-29T13:53:40;22.30;99.90
22682;DHT22;11508;50.856;4.380;2023-05-29T13:56:06;22.20;99.90
22682;DHT22;11508;50.856;4.380;2023-05-29T13:58:31;22.20;99.90
22682;DHT22;11508;50.856;4.380;2023-05-29T14:00:57;22.20;99.90
22682;DHT22;11508;50.856;4.380;2023-05-29T14:03:23;22.20;99.90
22682;DHT22;11508;50.856;4.380;2023-05-29T14:05:54;22.20;99.90
22682;DHT22;11508;50.856;4.380;2023-05-29T14:08:19;22.20;99.90
22682;DHT22;11508;50.856;4.380;2023-05-29T14:10:45;22.30;99.90
22682;DHT22;11508;50.856;4.380;2023-05-29T14:13:11;22.20;99.90
22682;DHT22;11508;50.856;4.380;2023-05-29T14:15:37;22.20;99.90
22682;DHT22;11508;50.856;4.380;2023-05-29T14:18:02;22.40;99.90
22682;DHT22;11508;50.856;4.380;2023-05-29T14:20:28;22.40;99.90
22682;DHT22;11508;50.856;4.380;2023-05-29T14:22:54;22.20;99.90
22682;DHT22;11508;50.856;4.380;2023-05-29T14:25:21;22.10;99.90
22682;DHT22;11508;50.856;4.380;2023-05-29T14:27:46;22.10;99.90
22682;DHT22;11508;50.856;4.380;2023-05-29T14:30:12;22.20;99.90
22682;DHT22;11508;50.856;4.380;2023-05-29T14:32:38;22.40;99.90
22682;DHT22;11508;50.856;4.380;2023-05-29T14:35:04;22.30;99.90
22682;DHT22;11508;50.856;4.380;2023-05-29T14:37:29;22.20;99.90
22682;DHT22;11508;50.856;4.380;2023-05-29T14:39:55;22.40;99.90
22682;DHT22;11508;50.856;4.380;2023-05-29T14:42:21;22.50;99.90
22682;DHT22;11508;50.856;4.380;2023-05-29T14:44:47;22.50;99.90
22682;DHT22;11508;50.856;4.380;2023-05-29T14:47:12;22.40;99.90
22682;DHT22;11508;50.856;4.380;2023-05-29T14:49:38;22.10;99.90
22682;DHT22;11508;50.856;4.380;2023-05-29T14:52:04;22.10;99.90
22682;DHT22;11508;50.856;4.380;2023-05-29T14:54:30;22.10;99.90
22682;DHT22;11508;50.856;4.380;2023-05-29T14:56:56;22.20;99.90
22682;DHT22;11508;50.856;4.380;2023-05-29T14:59:23;22.30;99.90
22682;DHT22;11508;50.856;4.380;2023-05-29T15:01:49;22.30;99.90
22682;DHT22;11508;50.856;4.380;2023-05-29T15:04:16;22.00;99.90
22682;DHT22;11508;50.856;4.380;2023-05-29T15:06:41;21.90;99.90
22682;DHT22;11508;50.856;4.380;2023-05-29T15:09:07;22.10;99.90
22682;DHT22;11508;50.856;4.380;2023-05-29T15:11:33;22.00;99.90
22682;DHT22;11508;50.856;4.380;2023-05-29T15:13:58;21.80;99.90
22682;DHT22;11508;50.856;4.380;2023-05-29T15:16:24;21.90;99.90
22682;DHT22;11508;50.856;4.380;2023-05-29T15:18:50;21.90;99.90
22682;DHT22;11508;50.856;4.380;2023-05-29T15:21:15;21.80;99.90
22682;DHT22;11508;50.856;4.380;2023-05-29T15:23:41;21.70;99.90
22682;DHT22;11508;50.856;4.380;2023-05-29T15:26:09;21.80;99.90
22682;DHT22;11508;50.856;4.380;2023-05-29T15:28:35;21.90;99.90
22682;DHT22;11508;50.856;4.380;2023-05-29T15:31:01;21.90;99.90
22682;DHT22;11508;50.856;4.380;2023-05-29T15:33:27;21.80;99.90
22682;DHT22;11508;50.856;4.380;2023-05-29T15:35:53;21.70;99.90
22682;DHT22;11508;50.856;4.380;2023-05-29T15:38:19;21.60;99.90
22682;DHT22;11508;50.856;4.380;2023-05-29T15:40:45;21.50;99.90
22682;DHT22;11508;50.856;4.380;2023-05-29T15:43:11;21.50;99.90
22682;DHT22;11508;50.856;4.380;2023-05-29T15:45:37;21.40;99.90
22682;DHT22;11508;50.856;4.380;2023-05-29T15:48:03;21.50;99.90
22682;DHT22;11508;50.856;4.380;2023-05-29T15:50:29;21.40;99.90
22682;DHT22;11508;50.856;4.380;2023-05-29T15:52:55;21.30;99.90
22682;DHT22;11508;50.856;4.380;2023-05-29T15:55:21;21.30;99.90
22682;DHT22;11508;50.856;4.380;2023-05-29T15:57:47;21.60;99.90
22682;DHT22;11508;50.856;4.380;2023-05-29T16:00:15;21.50;99.90
22682;DHT22;11508;50.856;4.380;2023-05-29T16:02:41;21.50;99.90
22682;DHT22;11508;50.856;4.380;2023-05-29T16:05:07;21.20;99.90
22682;DHT22;11508;50.856;4.380;2023-05-29T16:07:34;21.10;99.90